createdAt,value
2022-11-26T00:01:44.047Z,54.20
2022-11-26T00:04:15.514Z,53.90
2022-11-26T00:06:46.551Z,54.70
2022-11-26T00:09:20.705Z,52.80
2022-11-26T00:11:51.523Z,50.20
2022-11-26T00:14:22.142Z,51.80
2022-11-26T00:16:53.183Z,52.50
2022-11-26T00:19:23.859Z,56.50
2022-11-26T00:21:54.748Z,52.10
2022-11-26T00:24:27.790Z,50.10
2022-11-26T00:26:59.284Z,50.10
2022-11-26T00:29:30.012Z,49.60
2022-11-26T00:32:00.803Z,47.30
2022-11-26T00:34:31.441Z,46.40
2022-11-26T00:37:02.747Z,43.70
2022-11-26T00:39:33.358Z,44.50
2022-11-26T00:42:06.223Z,48.70
2022-11-26T00:44:37.154Z,40.80
2022-11-26T00:47:10.040Z,42.90
2022-11-26T00:49:40.792Z,42.10
2022-11-26T00:52:22.135Z,39.70
2022-11-26T00:54:52.905Z,41.90
2022-11-26T00:57:23.822Z,40.80
2022-11-26T00:59:54.370Z,37.60
2022-11-26T01:02:25.248Z,39.90
2022-11-26T01:04:56.414Z,41.10
2022-11-26T01:07:27.447Z,41.90
2022-11-26T01:09:58.020Z,39.70
2022-11-26T01:12:30.865Z,40.20
2022-11-26T01:15:01.433Z,36.30
2022-11-26T01:17:32.159Z,38.90
2022-11-26T01:20:02.800Z,40.60
2022-11-26T01:22:33.636Z,40.00
2022-11-26T01:25:04.333Z,40.20
2022-11-26T01:27:35.202Z,40.00
2022-11-26T01:30:12.031Z,40.60
2022-11-26T01:32:43.118Z,39.40
2022-11-26T01:35:14.111Z,40.90
2022-11-26T01:37:45.357Z,38.90
2022-11-26T01:40:31.138Z,39.00
2022-11-26T01:43:05.416Z,40.50
2022-11-26T01:45:37.532Z,40.60
2022-11-26T01:48:17.944Z,45.20
2022-11-26T01:50:59.573Z,43.00
2022-11-26T01:53:35.236Z,45.00
2022-11-26T01:56:08.189Z,42.70
2022-11-26T01:58:41.551Z,42.80
2022-11-26T02:03:45.062Z,48.50
2022-11-26T02:06:19.178Z,47.60
2022-11-26T02:08:50.111Z,46.60
2022-11-26T02:11:22.736Z,46.10
2022-11-26T02:13:55.392Z,47.40
2022-11-26T02:16:41.042Z,46.20
2022-11-26T02:19:19.159Z,49.10
2022-11-26T02:21:53.885Z,47.80
2022-11-26T02:24:36.436Z,44.80
2022-11-26T02:27:25.152Z,47.90
2022-11-26T02:30:04.383Z,47.00
2022-11-26T02:32:40.131Z,49.70
2022-11-26T02:35:14.199Z,46.00
2022-11-26T02:37:47.643Z,46.00
2022-11-26T02:42:47.319Z,48.40
2022-11-26T02:45:19.433Z,48.20
2022-11-26T02:47:51.643Z,45.60
2022-11-26T02:50:25.499Z,47.30
2022-11-26T02:52:57.256Z,44.90
2022-11-26T02:55:30.365Z,46.30
2022-11-26T02:58:01.491Z,44.60
2022-11-26T03:00:32.672Z,47.60
2022-11-26T03:03:05.181Z,49.00
2022-11-26T03:05:38.578Z,50.00
2022-11-26T03:08:09.299Z,47.00
2022-11-26T03:10:40.313Z,47.80
2022-11-26T03:13:11.094Z,50.10
2022-11-26T03:15:41.841Z,48.90
2022-11-26T03:18:12.477Z,48.90
2022-11-26T03:20:42.979Z,50.00
2022-11-26T03:23:13.636Z,51.30
2022-11-26T03:25:44.274Z,51.00
2022-11-26T03:28:15.101Z,51.90
2022-11-26T03:30:50.484Z,48.60
2022-11-26T03:33:21.365Z,48.20
2022-11-26T03:35:52.062Z,46.00
2022-11-26T03:38:22.849Z,47.80
2022-11-26T03:40:58.571Z,40.80
2022-11-26T03:43:36.813Z,43.40
2022-11-26T03:46:07.762Z,39.30
2022-11-26T03:48:38.838Z,44.40
2022-11-26T03:51:09.639Z,44.60
2022-11-26T03:53:40.603Z,41.30
2022-11-26T03:56:11.395Z,39.40
2022-11-26T03:58:42.126Z,40.20
2022-11-26T04:01:13.989Z,40.50
2022-11-26T04:03:44.827Z,38.90
2022-11-26T04:06:16.652Z,38.90
2022-11-26T04:08:47.718Z,42.90
2022-11-26T04:11:18.457Z,38.70
2022-11-26T04:13:49.251Z,39.20
2022-11-26T04:16:20.961Z,40.60
2022-11-26T04:18:51.595Z,43.10
2022-11-26T04:21:22.005Z,43.50
2022-11-26T04:23:52.755Z,43.40
2022-11-26T04:26:23.421Z,40.70
2022-11-26T04:28:54.100Z,43.70
2022-11-26T04:31:24.878Z,41.40
2022-11-26T04:33:55.655Z,43.50
2022-11-26T04:36:26.266Z,41.00
2022-11-26T04:38:58.226Z,45.90
2022-11-26T04:41:29.093Z,42.70
2022-11-26T04:43:59.828Z,39.50
2022-11-26T04:46:30.397Z,42.80
2022-11-26T04:49:01.096Z,44.80
2022-11-26T04:51:31.641Z,43.40
2022-11-26T04:54:03.441Z,47.90
2022-11-26T04:56:35.334Z,50.80
2022-11-26T04:59:06.011Z,52.60
2022-11-26T05:01:36.992Z,48.30
2022-11-26T05:04:08.438Z,48.40
2022-11-26T05:06:39.187Z,50.40
2022-11-26T05:09:09.887Z,49.30
2022-11-26T05:11:40.661Z,50.50
2022-11-26T05:14:11.396Z,52.10
2022-11-26T05:16:42.190Z,55.60
2022-11-26T05:19:12.935Z,55.10
2022-11-26T05:21:44.351Z,52.70
2022-11-26T05:24:15.041Z,53.90
2022-11-26T05:26:45.565Z,53.30
2022-11-26T05:29:16.450Z,51.50
2022-11-26T05:31:47.081Z,54.60
2022-11-26T05:34:18.064Z,51.00
2022-11-26T05:36:48.749Z,49.40
2022-11-26T05:39:19.846Z,48.50
2022-11-26T05:41:50.955Z,53.30
2022-11-26T05:44:21.720Z,53.70
2022-11-26T05:46:52.250Z,51.70
2022-11-26T05:49:22.987Z,50.60
2022-11-26T05:51:53.629Z,53.70
2022-11-26T05:54:25.060Z,52.90
2022-11-26T05:57:00.075Z,52.40
2022-11-26T05:59:31.348Z,50.50
2022-11-26T06:02:02.215Z,49.80
2022-11-26T06:04:33.290Z,50.70
2022-11-26T06:07:04.875Z,53.80
2022-11-26T06:09:36.099Z,54.10
2022-11-26T06:12:07.480Z,54.40
2022-11-26T06:14:42.951Z,59.80
2022-11-26T06:17:14.261Z,53.10
2022-11-26T06:19:44.979Z,52.60
2022-11-26T06:22:15.829Z,54.00
2022-11-26T06:24:46.677Z,50.40
2022-11-26T06:27:17.293Z,51.50
2022-11-26T06:29:48.232Z,51.30
2022-11-26T06:32:18.826Z,56.90
2022-11-26T06:34:53.803Z,57.70
2022-11-26T06:37:27.086Z,53.20
2022-11-26T06:39:58.080Z,49.80
2022-11-26T06:42:29.990Z,47.50
2022-11-26T06:45:00.889Z,47.60
2022-11-26T06:47:31.560Z,45.80
2022-11-26T06:50:05.201Z,51.30
2022-11-26T06:52:40.460Z,52.90
2022-11-26T06:55:11.607Z,53.20
2022-11-26T06:57:42.265Z,50.60
2022-11-26T07:00:14.765Z,48.40
2022-11-26T07:02:45.689Z,56.20
2022-11-26T07:05:16.636Z,47.70
2022-11-26T07:07:47.498Z,48.30
2022-11-26T07:10:18.341Z,45.10
2022-11-26T07:12:49.022Z,44.90
2022-11-26T07:15:20.265Z,44.50
2022-11-26T07:17:51.045Z,47.20
2022-11-26T07:20:22.043Z,48.90
2022-11-26T07:22:52.739Z,51.60
2022-11-26T07:25:24.180Z,49.10
2022-11-26T07:27:54.690Z,47.00
2022-11-26T07:30:25.497Z,50.30
2022-11-26T07:32:56.120Z,47.40
2022-11-26T07:35:26.847Z,49.80
2022-11-26T07:37:58.144Z,52.20
2022-11-26T07:40:28.963Z,50.10
2022-11-26T07:43:00.802Z,45.20
2022-11-26T07:45:36.995Z,48.10
2022-11-26T07:48:11.542Z,44.70
2022-11-26T07:50:46.469Z,45.70
2022-11-26T07:53:19.801Z,42.90
2022-11-26T07:55:50.693Z,46.10
2022-11-26T07:58:21.412Z,46.80
2022-11-26T08:00:54.780Z,41.50
2022-11-26T08:03:25.805Z,41.10
2022-11-26T08:05:56.817Z,46.70
2022-11-26T08:08:27.468Z,46.70
2022-11-26T08:10:58.380Z,46.40
2022-11-26T08:13:29.345Z,41.50
2022-11-26T08:16:00.485Z,41.40
2022-11-26T08:18:31.219Z,45.00
2022-11-26T08:21:02.309Z,41.70
2022-11-26T08:23:33.302Z,40.70
2022-11-26T08:26:27.932Z,37.90
2022-11-26T08:28:58.830Z,41.40
2022-11-26T08:31:29.617Z,38.60
2022-11-26T08:34:00.842Z,36.10
2022-11-26T08:36:32.953Z,39.90
2022-11-26T08:39:03.505Z,39.80
2022-11-26T08:41:34.237Z,35.00
2022-11-26T08:44:06.564Z,36.20
2022-11-26T08:46:39.427Z,37.50
2022-11-26T08:49:12.651Z,39.10
2022-11-26T08:51:43.730Z,39.70
2022-11-26T08:54:14.254Z,37.60
2022-11-26T08:56:45.303Z,38.20
2022-11-26T08:59:16.822Z,38.60
2022-11-26T09:01:47.729Z,40.10
2022-11-26T09:04:18.720Z,36.80
2022-11-26T09:06:49.564Z,36.50
2022-11-26T09:09:21.010Z,38.90
2022-11-26T09:11:54.312Z,36.40
2022-11-26T09:14:26.314Z,37.80
2022-11-26T09:16:57.891Z,38.20
2022-11-26T09:19:28.831Z,39.10
2022-11-26T09:21:59.689Z,38.10
2022-11-26T09:24:30.938Z,37.50
2022-11-26T09:27:07.826Z,36.70
2022-11-26T09:29:39.372Z,35.50
2022-11-26T09:32:29.640Z,39.50
2022-11-26T09:35:01.105Z,38.60
2022-11-26T09:37:32.190Z,38.50
2022-11-26T09:40:02.981Z,34.40
2022-11-26T09:42:40.515Z,37.00
2022-11-26T09:45:18.600Z,38.90
2022-11-26T09:47:53.405Z,34.40
2022-11-26T09:50:27.721Z,36.60
2022-11-26T09:53:00.506Z,34.50
2022-11-26T09:55:32.136Z,36.20
2022-11-26T09:58:07.767Z,35.10
2022-11-26T10:00:39.536Z,35.10
2022-11-26T10:03:14.111Z,33.60
2022-11-26T10:05:51.274Z,33.30
2022-11-26T10:08:38.748Z,35.50
2022-11-26T10:11:11.912Z,31.50
2022-11-26T10:13:45.141Z,34.20
2022-11-26T10:16:25.828Z,36.20
2022-11-26T10:19:00.023Z,35.80
2022-11-26T10:21:57.514Z,36.20
2022-11-26T10:26:54.283Z,37.60
2022-11-26T10:29:25.891Z,37.60
2022-11-26T10:31:58.983Z,36.30
2022-11-26T10:34:38.647Z,32.30
2022-11-26T10:37:10.371Z,32.40
2022-11-26T10:39:41.053Z,34.30
2022-11-26T10:42:14.712Z,34.50
2022-11-26T10:44:45.248Z,33.50
2022-11-26T10:47:26.915Z,33.40
2022-11-26T10:50:39.597Z,31.10
2022-11-26T10:53:07.473Z,32.60
2022-11-26T10:55:40.338Z,34.50
2022-11-26T10:58:16.291Z,35.40
2022-11-26T11:00:54.743Z,29.60
2022-11-26T11:03:44.952Z,33.10
2022-11-26T11:06:29.215Z,31.50
2022-11-26T11:09:00.031Z,31.30
2022-11-26T11:11:32.115Z,30.40
2022-11-26T11:14:02.979Z,27.70
2022-11-26T11:16:39.157Z,34.20
2022-11-26T11:19:21.854Z,31.10
2022-11-26T11:21:52.701Z,29.70
2022-11-26T11:24:24.564Z,31.30
2022-11-26T11:26:57.237Z,30.20
2022-11-26T11:29:33.780Z,30.10
2022-11-26T11:32:05.384Z,34.00
2022-11-26T11:34:39.067Z,33.20
2022-11-26T11:37:15.338Z,32.20
2022-11-26T11:39:46.333Z,32.90
2022-11-26T11:42:22.270Z,30.90
2022-11-26T11:44:53.498Z,31.50
2022-11-26T11:47:31.315Z,30.60
2022-11-26T11:50:21.299Z,32.20
2022-11-26T11:53:00.613Z,31.50
2022-11-26T11:55:38.633Z,30.70
2022-11-26T11:58:29.980Z,29.00
2022-11-26T12:01:07.245Z,32.70
2022-11-26T12:03:53.449Z,28.10
2022-11-26T12:06:29.535Z,30.80
2022-11-26T12:09:04.443Z,30.80
2022-11-26T12:11:42.570Z,30.80
2022-11-26T12:14:16.639Z,33.10
2022-11-26T12:16:48.603Z,29.00
2022-11-26T12:19:21.730Z,29.20
2022-11-26T12:21:55.776Z,28.00
2022-11-26T12:24:30.428Z,32.40
2022-11-26T12:27:04.989Z,28.10
2022-11-26T12:29:39.206Z,29.20
2022-11-26T12:32:14.441Z,29.00
2022-11-26T12:34:47.838Z,27.90
2022-11-26T12:39:53.822Z,28.20
2022-11-26T12:42:27.617Z,27.10
2022-11-26T12:45:05.562Z,25.70
2022-11-26T12:47:39.884Z,26.50
2022-11-26T12:50:16.709Z,27.10
2022-11-26T12:52:54.476Z,24.80
2022-11-26T12:55:28.156Z,24.80
2022-11-26T12:58:00.558Z,25.80
2022-11-26T13:00:35.896Z,24.60
2022-11-26T13:03:08.099Z,25.40
2022-11-26T13:05:48.592Z,23.80
2022-11-26T13:08:28.589Z,23.40
2022-11-26T13:11:10.568Z,25.50
2022-11-26T13:13:44.505Z,25.40
2022-11-26T13:16:20.174Z,25.10
2022-11-26T13:18:52.087Z,24.50
2022-11-26T13:21:41.481Z,23.50
2022-11-26T13:24:23.176Z,24.90
2022-11-26T13:27:02.919Z,26.50
2022-11-26T13:29:42.836Z,25.40
2022-11-26T13:32:26.305Z,25.80
2022-11-26T13:35:08.221Z,25.80
2022-11-26T13:37:52.390Z,26.40
2022-11-26T13:40:39.059Z,27.10
2022-11-26T13:43:25.980Z,27.40
2022-11-26T13:46:00.744Z,27.10
2022-11-26T13:48:34.971Z,26.10
2022-11-26T13:51:09.488Z,26.30
2022-11-26T13:53:42.743Z,27.00
2022-11-26T13:56:14.047Z,26.00
2022-11-26T13:58:46.647Z,23.50
2022-11-26T14:01:30.569Z,25.30
2022-11-26T14:04:01.430Z,22.20
2022-11-26T14:06:32.407Z,23.60
2022-11-26T14:09:03.424Z,24.70
2022-11-26T14:11:54.826Z,22.90
2022-11-26T14:14:48.032Z,25.40
2022-11-26T14:17:27.968Z,26.20
2022-11-26T14:20:02.991Z,26.40
2022-11-26T14:22:35.039Z,26.40
2022-11-26T14:25:06.620Z,26.00
2022-11-26T14:27:39.257Z,24.90
2022-11-26T14:30:26.502Z,25.90
2022-11-26T14:33:11.357Z,25.20
2022-11-26T14:35:42.492Z,24.40
2022-11-26T14:38:24.802Z,28.90
2022-11-26T14:40:59.877Z,28.70
2022-11-26T14:43:30.826Z,29.70
2022-11-26T14:46:02.375Z,27.80
2022-11-26T14:48:34.388Z,28.70
2022-11-26T14:51:08.357Z,30.00
2022-11-26T14:53:43.229Z,27.70
2022-11-26T14:56:14.271Z,28.00
2022-11-26T14:58:47.536Z,27.80
2022-11-26T15:01:22.011Z,27.90
2022-11-26T15:04:00.109Z,27.70
2022-11-26T15:06:35.040Z,27.40
2022-11-26T15:09:16.255Z,29.00
2022-11-26T15:11:48.898Z,28.50
2022-11-26T15:14:22.659Z,28.80
2022-11-26T15:16:56.546Z,28.50
2022-11-26T15:19:28.524Z,27.00
2022-11-26T15:21:59.420Z,30.70
2022-11-26T15:24:30.134Z,29.10
2022-11-26T15:27:00.836Z,30.60
2022-11-26T15:29:33.112Z,31.50
2022-11-26T15:32:03.897Z,30.80
2022-11-26T15:34:35.188Z,33.10
2022-11-26T15:37:06.472Z,29.80
2022-11-26T15:39:37.742Z,30.40
2022-11-26T15:42:25.107Z,30.80
2022-11-26T15:44:56.112Z,34.60
2022-11-26T15:47:28.260Z,31.90
2022-11-26T15:50:00.485Z,33.30
2022-11-26T15:52:33.159Z,34.30
2022-11-26T15:55:13.751Z,31.50
2022-11-26T15:57:45.333Z,33.20
2022-11-26T16:00:22.522Z,31.40
2022-11-26T16:02:53.339Z,31.90
2022-11-26T16:05:29.973Z,30.30
2022-11-26T16:08:02.050Z,30.00
2022-11-26T16:10:35.900Z,31.30
2022-11-26T16:13:19.972Z,28.40
2022-11-26T16:18:21.241Z,31.00
2022-11-26T16:21:01.680Z,31.30
2022-11-26T16:23:32.437Z,31.30
2022-11-26T16:26:11.505Z,36.90
2022-11-26T16:28:42.120Z,33.90
2022-11-26T16:31:12.895Z,31.70
2022-11-26T16:33:43.812Z,33.80
2022-11-26T16:36:30.786Z,29.20
2022-11-26T16:39:01.410Z,33.40
2022-11-26T16:41:32.201Z,32.50
2022-11-26T16:44:03.183Z,32.60
2022-11-26T16:46:36.388Z,32.80
2022-11-26T16:51:36.306Z,33.20
2022-11-26T16:54:07.197Z,34.40
2022-11-26T16:56:40.124Z,34.70
2022-11-26T16:59:16.440Z,35.70
2022-11-26T17:01:47.486Z,33.80
2022-11-26T17:04:19.284Z,33.40
2022-11-26T17:06:50.287Z,33.30
2022-11-26T17:09:21.280Z,34.10
2022-11-26T17:11:51.964Z,29.10
2022-11-26T17:14:22.838Z,28.70
2022-11-26T17:16:53.389Z,29.30
2022-11-26T17:19:24.603Z,28.50
2022-11-26T17:21:55.256Z,26.20
2022-11-26T17:24:31.265Z,26.20
2022-11-26T17:27:03.268Z,26.50
2022-11-26T17:29:37.096Z,27.50
2022-11-26T17:32:12.738Z,27.50
2022-11-26T17:34:43.552Z,28.80
2022-11-26T17:37:15.605Z,28.10
2022-11-26T17:39:46.519Z,28.20
2022-11-26T17:42:19.998Z,27.00
2022-11-26T17:44:51.811Z,26.70
2022-11-26T17:47:22.897Z,26.10
2022-11-26T17:49:54.312Z,26.30
2022-11-26T17:52:24.931Z,26.00
2022-11-26T17:54:55.758Z,25.10
2022-11-26T17:57:28.550Z,23.20
2022-11-26T17:59:59.424Z,21.70
2022-11-26T18:02:30.176Z,21.10
2022-11-26T18:05:00.847Z,21.40
2022-11-26T18:07:31.547Z,18.60
2022-11-26T18:10:02.513Z,19.70
2022-11-26T18:12:32.945Z,18.60
2022-11-26T18:15:05.260Z,18.50
2022-11-26T18:17:35.939Z,18.00
2022-11-26T18:20:08.553Z,17.30
2022-11-26T18:22:39.980Z,17.20
2022-11-26T18:25:11.219Z,16.90
2022-11-26T18:27:41.913Z,19.60
2022-11-26T18:30:13.910Z,20.70
2022-11-26T18:32:44.702Z,19.60
2022-11-26T18:35:16.156Z,20.90
2022-11-26T18:37:47.028Z,18.80
2022-11-26T18:40:18.387Z,20.00
2022-11-26T18:42:52.408Z,19.00
2022-11-26T18:45:23.485Z,20.00
2022-11-26T18:47:54.259Z,16.80
2022-11-26T18:50:25.055Z,16.00
2022-11-26T18:52:58.490Z,16.30
2022-11-26T18:55:29.424Z,15.40
2022-11-26T18:58:02.880Z,15.10
2022-11-26T19:00:36.730Z,16.30
2022-11-26T19:03:07.534Z,14.50
2022-11-26T19:05:39.137Z,16.00
2022-11-26T19:08:09.550Z,14.10
2022-11-26T19:10:40.488Z,15.50
2022-11-26T19:13:11.029Z,14.70
2022-11-26T19:15:43.130Z,13.80
2022-11-26T19:18:14.548Z,15.40
2022-11-26T19:20:53.076Z,14.50
2022-11-26T19:23:26.239Z,15.60
2022-11-26T19:25:57.241Z,13.20
2022-11-26T19:28:28.624Z,13.10
2022-11-26T19:31:00.749Z,12.80
2022-11-26T19:33:31.730Z,13.00
2022-11-26T19:36:05.877Z,14.40
2022-11-26T19:38:36.474Z,14.50
2022-11-26T19:41:07.911Z,14.30
2022-11-26T19:43:40.344Z,13.80
2022-11-26T19:46:12.824Z,13.90
2022-11-26T19:48:44.831Z,13.60
2022-11-26T19:51:16.135Z,14.50
2022-11-26T19:53:47.925Z,14.10
2022-11-26T19:56:19.804Z,13.50
2022-11-26T19:58:50.812Z,14.40
2022-11-26T20:01:22.423Z,14.20
2022-11-26T20:03:53.223Z,17.60
2022-11-26T20:06:26.538Z,15.90
2022-11-26T20:08:58.486Z,18.50
2022-11-26T20:11:30.282Z,17.40
2022-11-26T20:14:01.188Z,17.90
2022-11-26T20:16:33.335Z,19.90
2022-11-26T20:19:04.300Z,21.20
2022-11-26T20:21:38.444Z,20.80
2022-11-26T20:24:10.869Z,19.10
2022-11-26T20:26:43.402Z,20.70
2022-11-26T20:29:15.200Z,21.20
2022-11-26T20:31:47.254Z,23.20
2022-11-26T20:34:18.815Z,22.10
2022-11-26T20:36:51.461Z,22.30
2022-11-26T20:39:23.666Z,22.70
2022-11-26T20:41:54.705Z,22.80
2022-11-26T20:44:27.272Z,24.80
2022-11-26T20:46:58.218Z,23.00
2022-11-26T20:49:33.991Z,23.70
2022-11-26T20:52:06.668Z,22.00
2022-11-26T20:54:37.991Z,24.10
2022-11-26T20:57:08.783Z,24.10
2022-11-26T20:59:41.196Z,26.70
2022-11-26T21:02:15.809Z,23.70
2022-11-26T21:04:46.886Z,23.10
2022-11-26T21:07:17.771Z,25.00
2022-11-26T21:09:48.757Z,25.10
2022-11-26T21:12:19.468Z,26.40
2022-11-26T21:14:50.078Z,25.10
2022-11-26T21:17:21.999Z,22.70
2022-11-26T21:19:52.689Z,22.80
2022-11-26T21:22:23.787Z,22.90
2022-11-26T21:24:54.673Z,22.00
2022-11-26T21:27:25.513Z,23.30
2022-11-26T21:29:56.339Z,22.00
2022-11-26T21:32:27.027Z,22.30
2022-11-26T21:34:57.652Z,21.60
2022-11-26T21:37:29.572Z,21.40
2022-11-26T21:40:00.210Z,22.40
2022-11-26T21:42:31.450Z,20.90
2022-11-26T21:45:02.086Z,20.20
2022-11-26T21:47:33.221Z,20.60
2022-11-26T21:50:04.257Z,20.00
2022-11-26T21:52:35.105Z,20.90
2022-11-26T21:55:06.716Z,22.30
2022-11-26T21:57:37.883Z,21.60
2022-11-26T22:00:10.272Z,21.50
2022-11-26T22:02:41.354Z,21.30
2022-11-26T22:05:12.414Z,21.80
2022-11-26T22:07:43.422Z,21.40
2022-11-26T22:10:14.071Z,19.60
2022-11-26T22:12:46.381Z,19.00
2022-11-26T22:15:17.192Z,20.80
2022-11-26T22:17:47.860Z,19.80
2022-11-26T22:20:18.638Z,17.20
2022-11-26T22:22:49.723Z,18.70
2022-11-26T22:25:21.993Z,18.90
2022-11-26T22:27:52.993Z,18.40
2022-11-26T22:30:23.967Z,18.30
2022-11-26T22:32:54.899Z,17.80
2022-11-26T22:35:25.467Z,17.10
2022-11-26T22:37:56.743Z,17.70
2022-11-26T22:40:27.514Z,19.80
2022-11-26T22:42:58.989Z,15.70
2022-11-26T22:45:30.125Z,16.10
2022-11-26T22:48:01.150Z,15.60
2022-11-26T22:50:31.780Z,16.20
2022-11-26T22:53:02.390Z,15.60
2022-11-26T22:55:33.070Z,16.40
2022-11-26T22:58:04.015Z,14.90
2022-11-26T23:00:48.064Z,14.30
2022-11-26T23:03:19.761Z,14.40
2022-11-26T23:05:50.629Z,13.40
2022-11-26T23:08:22.109Z,14.10
2022-11-26T23:10:52.908Z,15.20
2022-11-26T23:13:24.281Z,15.30
2022-11-26T23:15:55.031Z,14.70
2022-11-26T23:18:26.175Z,15.40
2022-11-26T23:21:04.342Z,14.60
2022-11-26T23:23:35.683Z,14.00
2022-11-26T23:26:07.548Z,13.70
2022-11-26T23:28:39.187Z,13.70
2022-11-26T23:31:14.048Z,13.80
2022-11-26T23:33:44.909Z,14.60
2022-11-26T23:36:15.969Z,16.10
2022-11-26T23:38:46.845Z,16.40
2022-11-26T23:41:17.734Z,15.50
2022-11-26T23:43:48.571Z,14.80
2022-11-26T23:46:22.376Z,14.10
2022-11-26T23:48:53.649Z,14.10
2022-11-26T23:51:25.277Z,14.70
2022-11-26T23:53:56.919Z,15.70
2022-11-26T23:56:28.545Z,13.80
2022-11-26T23:59:01.681Z,14.70
